Time;durP1;ratioP1;P1;durP2;ratioP2;P2;SDS_P1;SDS_P2;PMS_P1;PMS_P2;Temp;Humidity;BMP_temperature;BMP_pressure;BME280_temperature;BME280_humidity;BME280_pressure;Samples;Min_cycle;Max_cycle;Signal;HPM_P1;HPM_P2
2022/12/28 00:01:34;;;;;;;;;;;5.10;99.90;;;;;;5097280;28;19920;-68
2022/12/28 00:04:00;;;;;;;;;;;5.10;99.90;;;;;;5083129;28;19916;-68
2022/12/28 00:06:26;;;;;;;;;;;5.10;99.90;;;;;;5071800;28;19923;-68
2022/12/28 00:08:52;;;;;;;;;;;5.10;99.90;;;;;;5091309;28;19916;-67
2022/12/28 00:11:18;;;;;;;;;;;5.10;99.90;;;;;;5102094;28;20392;-67
2022/12/28 00:13:44;;;;;;;;;;;5.10;99.90;;;;;;5090651;28;19924;-68
2022/12/28 00:16:09;;;;;;;;;;;5.10;99.90;;;;;;5096735;28;19915;-67
2022/12/28 00:18:35;;;;;;;;;;;5.10;99.90;;;;;;5103030;28;19926;-68
2022/12/28 00:21:01;;;;;;;;;;;5.10;99.90;;;;;;5108218;28;20277;-68
2022/12/28 00:23:26;;;;;;;;;;;5.10;99.90;;;;;;5081641;28;19919;-68
2022/12/28 00:25:52;;;;;;;;;;;5.10;99.90;;;;;;5092840;28;19916;-67
2022/12/28 00:28:18;;;;;;;;;;;5.10;99.90;;;;;;5091408;28;20355;-69
2022/12/28 00:30:44;;;;;;;;;;;5.10;99.90;;;;;;5085293;28;20294;-69
2022/12/28 00:33:09;;;;;;;;;;;5.10;99.90;;;;;;5087929;28;19969;-67
2022/12/28 00:35:35;;;;;;;;;;;5.10;99.90;;;;;;5093940;28;20330;-69
2022/12/28 00:38:00;;;;;;;;;;;5.10;99.90;;;;;;5083021;28;20213;-67
2022/12/28 00:40:26;;;;;;;;;;;5.10;99.90;;;;;;5087327;28;19928;-68
2022/12/28 00:42:52;;;;;;;;;;;5.10;99.90;;;;;;5107895;28;20031;-68
2022/12/28 00:45:17;;;;;;;;;;;5.10;99.90;;;;;;5073717;28;19917;-68
2022/12/28 00:47:43;;;;;;;;;;;5.10;99.90;;;;;;5075739;28;20336;-67
2022/12/28 00:50:09;;;;;;;;;;;5.10;99.90;;;;;;5082476;28;19916;-68
2022/12/28 00:52:34;;;;;;;;;;;5.10;99.90;;;;;;5089249;27;19920;-68
2022/12/28 00:55:00;;;;;;;;;;;5.20;99.90;;;;;;5092283;28;19916;-67
2022/12/28 00:57:25;;;;;;;;;;;5.10;99.90;;;;;;5090614;28;19915;-68
2022/12/28 00:59:51;;;;;;;;;;;5.10;99.90;;;;;;5085876;28;19920;-68
2022/12/28 01:02:17;;;;;;;;;;;5.10;99.90;;;;;;5079529;28;19912;-68
2022/12/28 01:04:42;;;;;;;;;;;5.10;99.90;;;;;;5107880;28;20367;-67
2022/12/28 01:07:08;;;;;;;;;;;5.10;99.90;;;;;;5080604;28;19919;-68
2022/12/28 01:09:34;;;;;;;;;;;5.10;99.90;;;;;;5097732;28;19934;-68
2022/12/28 01:11:59;;;;;;;;;;;5.10;99.90;;;;;;5099213;28;19915;-68
2022/12/28 01:14:25;;;;;;;;;;;5.10;99.90;;;;;;5074504;28;20297;-68
2022/12/28 01:16:50;;;;;;;;;;;5.10;99.90;;;;;;5093962;28;20336;-69
2022/12/28 01:19:20;;;;;;;;;;;5.20;99.90;;;;;;5088916;28;19912;-68
2022/12/28 01:21:46;;;;;;;;;;;5.10;99.90;;;;;;5064762;28;19981;-68
2022/12/28 01:24:12;;;;;;;;;;;5.10;99.90;;;;;;5087067;28;20011;-68
2022/12/28 01:26:37;;;;;;;;;;;5.10;99.90;;;;;;5092042;28;20420;-68
2022/12/28 01:29:03;;;;;;;;;;;5.10;99.90;;;;;;5059494;28;20373;-68
2022/12/28 01:31:29;;;;;;;;;;;5.10;99.90;;;;;;5070702;28;20062;-68
2022/12/28 01:33:55;;;;;;;;;;;5.10;99.90;;;;;;5063439;28;19927;-69
2022/12/28 01:36:21;;;;;;;;;;;5.10;99.90;;;;;;5089075;28;20234;-67
2022/12/28 01:38:47;;;;;;;;;;;5.10;99.90;;;;;;5106242;28;19965;-68
2022/12/28 01:41:13;;;;;;;;;;;5.10;99.90;;;;;;5096830;28;20335;-68
2022/12/28 01:43:42;;;;;;;;;;;5.10;99.90;;;;;;5072741;28;20149;-73
2022/12/28 01:46:12;;;;;;;;;;;5.10;99.90;;;;;;5092968;28;19916;-73
2022/12/28 01:48:40;;;;;;;;;;;5.10;99.90;;;;;;5065098;28;19920;-73
2022/12/28 01:51:08;;;;;;;;;;;5.10;99.90;;;;;;5091497;28;19916;-68
2022/12/28 01:53:34;;;;;;;;;;;5.10;99.90;;;;;;5101388;28;19915;-73
2022/12/28 01:55:59;;;;;;;;;;;5.10;99.90;;;;;;5088513;28;19924;-73
2022/12/28 01:58:26;;;;;;;;;;;5.10;99.90;;;;;;5097347;28;19922;-74
2022/12/28 02:00:51;;;;;;;;;;;5.10;99.90;;;;;;5100030;28;20034;-73
2022/12/28 02:03:21;;;;;;;;;;;5.10;99.90;;;;;;5100311;28;20054;-73
2022/12/28 02:05:51;;;;;;;;;;;5.20;99.90;;;;;;5085119;28;20385;-73
2022/12/28 02:08:23;;;;;;;;;;;5.20;99.90;;;;;;5097638;28;19972;-73
2022/12/28 02:10:49;;;;;;;;;;;5.20;99.90;;;;;;5105003;28;19965;-73
2022/12/28 02:13:14;;;;;;;;;;;5.20;99.90;;;;;;5070041;28;19955;-73
2022/12/28 02:15:40;;;;;;;;;;;5.20;99.90;;;;;;5099995;28;20043;-73
2022/12/28 02:18:06;;;;;;;;;;;5.20;99.90;;;;;;5106129;28;19915;-73
2022/12/28 02:20:50;;;;;;;;;;;5.30;99.90;;;;;;5065980;28;19962;-72
2022/12/28 02:23:22;;;;;;;;;;;5.30;99.90;;;;;;5079781;28;19946;-73
2022/12/28 02:25:56;;;;;;;;;;;5.20;99.90;;;;;;5099620;28;19951;-73
2022/12/28 02:28:37;;;;;;;;;;;5.30;99.90;;;;;;5081527;28;20031;-73
2022/12/28 02:31:05;;;;;;;;;;;5.30;99.90;;;;;;5093701;28;20113;-73
2022/12/28 02:33:43;;;;;;;;;;;5.30;99.90;;;;;;5100788;28;19923;-73
2022/12/28 02:36:32;;;;;;;;;;;5.30;99.90;;;;;;5077432;28;20423;-73
2022/12/28 02:39:01;;;;;;;;;;;5.30;99.90;;;;;;5079479;28;19927;-73
2022/12/28 02:41:27;;;;;;;;;;;5.30;99.90;;;;;;5086780;28;19920;-68
2022/12/28 02:43:52;;;;;;;;;;;5.30;99.90;;;;;;5100164;28;20002;-67
2022/12/28 02:52:37;;;;;;;;;;;5.30;99.90;;;;;;5086344;28;19912;-67
2022/12/28 02:58:00;;;;;;;;;;;5.30;99.90;;;;;;5082227;28;19912;-67
2022/12/28 03:00:28;;;;;;;;;;;5.30;99.90;;;;;;5097140;28;19927;-67
2022/12/28 03:03:14;;;;;;;;;;;5.30;99.90;;;;;;5091094;28;19920;-68
2022/12/28 03:08:30;;;;;;;;;;;5.30;99.90;;;;;;5093185;28;19916;-68
2022/12/28 03:11:09;;;;;;;;;;;5.30;99.90;;;;;;5079694;28;19965;-66
2022/12/28 03:13:44;;;;;;;;;;;5.40;99.90;;;;;;5090588;28;19912;-67
2022/12/28 03:16:31;;;;;;;;;;;5.40;99.90;;;;;;5110330;28;19923;-67
2022/12/28 03:32:47;;;;;;;;;;;5.50;99.90;;;;;;5106014;27;19923;-66
2022/12/28 03:35:12;;;;;;;;;;;5.50;99.90;;;;;;5088180;28;19915;-67
2022/12/28 03:38:07;;;;;;;;;;;5.50;99.90;;;;;;5096614;28;19916;-65
2022/12/28 03:40:39;;;;;;;;;;;5.60;99.90;;;;;;5074996;28;19923;-67
2022/12/28 03:45:55;;;;;;;;;;;5.60;99.90;;;;;;5095636;28;20297;-67
2022/12/28 03:48:21;;;;;;;;;;;5.70;99.90;;;;;;5088341;28;20296;-67
2022/12/28 03:50:46;;;;;;;;;;;5.70;99.90;;;;;;5099679;28;19926;-68
2022/12/28 03:53:12;;;;;;;;;;;5.70;99.90;;;;;;5091178;28;19926;-67
2022/12/28 03:55:39;;;;;;;;;;;5.70;99.90;;;;;;5100057;28;19921;-67
2022/12/28 03:58:05;;;;;;;;;;;5.70;99.90;;;;;;5096701;28;19916;-66
2022/12/28 04:00:31;;;;;;;;;;;5.70;99.90;;;;;;5075421;28;19920;-67
2022/12/28 04:02:56;;;;;;;;;;;5.70;99.90;;;;;;5101696;28;19922;-67
2022/12/28 04:05:23;;;;;;;;;;;5.70;99.90;;;;;;5108054;28;19960;-66
2022/12/28 04:07:49;;;;;;;;;;;5.70;99.90;;;;;;5107516;28;19915;-68
2022/12/28 04:10:14;;;;;;;;;;;5.70;99.90;;;;;;5096431;28;19922;-67
2022/12/28 04:12:40;;;;;;;;;;;5.70;99.90;;;;;;5102503;28;19956;-67
2022/12/28 04:15:06;;;;;;;;;;;5.70;99.90;;;;;;5094064;28;19972;-68
2022/12/28 04:17:32;;;;;;;;;;;5.80;99.90;;;;;;5068230;28;20029;-69
2022/12/28 04:19:58;;;;;;;;;;;5.80;99.90;;;;;;5085697;28;20332;-67
2022/12/28 04:22:23;;;;;;;;;;;5.80;99.90;;;;;;5108226;28;19954;-66
2022/12/28 04:24:49;;;;;;;;;;;5.70;99.90;;;;;;5073791;28;19916;-67
2022/12/28 04:27:15;;;;;;;;;;;5.70;99.90;;;;;;5105586;28;19916;-67
2022/12/28 04:29:40;;;;;;;;;;;5.70;99.90;;;;;;5085256;28;20612;-68
2022/12/28 04:32:06;;;;;;;;;;;5.70;99.90;;;;;;5088024;28;19970;-67
2022/12/28 04:34:31;;;;;;;;;;;5.80;99.90;;;;;;5090243;28;20372;-68
2022/12/28 04:36:57;;;;;;;;;;;5.70;99.90;;;;;;5088897;27;19919;-67
2022/12/28 04:39:23;;;;;;;;;;;5.70;99.90;;;;;;5086463;28;20002;-67
2022/12/28 04:41:48;;;;;;;;;;;5.70;99.90;;;;;;5081288;28;19924;-67
2022/12/28 04:44:14;;;;;;;;;;;5.70;99.90;;;;;;5089551;28;20589;-68
2022/12/28 04:46:40;;;;;;;;;;;5.70;99.90;;;;;;5082301;28;19916;-68
2022/12/28 04:49:05;;;;;;;;;;;5.70;99.90;;;;;;5099023;28;19916;-67
2022/12/28 04:51:31;;;;;;;;;;;5.70;99.90;;;;;;5090355;28;20010;-68
2022/12/28 04:53:57;;;;;;;;;;;5.70;99.90;;;;;;5088124;28;19983;-67
2022/12/28 04:56:23;;;;;;;;;;;5.70;99.90;;;;;;5074821;28;19928;-67
2022/12/28 04:58:52;;;;;;;;;;;5.70;99.90;;;;;;5086524;28;19915;-69
2022/12/28 05:01:18;;;;;;;;;;;5.70;99.90;;;;;;5096890;28;20034;-68
2022/12/28 05:03:44;;;;;;;;;;;5.70;99.90;;;;;;5089396;28;20031;-67
2022/12/28 05:06:10;;;;;;;;;;;5.80;99.90;;;;;;5069830;28;19916;-68
2022/12/28 05:08:36;;;;;;;;;;;5.80;99.90;;;;;;5089765;28;19916;-68
2022/12/28 05:11:06;;;;;;;;;;;5.80;99.90;;;;;;5100051;28;19981;-67
2022/12/28 05:13:32;;;;;;;;;;;5.80;99.90;;;;;;5106588;28;19915;-66
2022/12/28 05:16:01;;;;;;;;;;;5.80;99.90;;;;;;5098417;28;19916;-68
2022/12/28 05:18:27;;;;;;;;;;;5.80;99.90;;;;;;5088167;28;19997;-69
2022/12/28 05:21:03;;;;;;;;;;;5.80;99.90;;;;;;5095651;28;19955;-68
2022/12/28 05:23:29;;;;;;;;;;;5.80;99.90;;;;;;5097673;28;19916;-68
2022/12/28 05:25:55;;;;;;;;;;;5.90;99.90;;;;;;5093185;28;19952;-67
2022/12/28 05:28:20;;;;;;;;;;;5.90;99.90;;;;;;5085734;28;20057;-67
2022/12/28 05:30:46;;;;;;;;;;;5.90;99.90;;;;;;5077512;28;19920;-68
2022/12/28 05:33:12;;;;;;;;;;;5.90;99.90;;;;;;5100716;28;19916;-67
2022/12/28 05:35:37;;;;;;;;;;;6.00;99.90;;;;;;5106804;28;19915;-68
2022/12/28 05:38:03;;;;;;;;;;;6.00;99.90;;;;;;5084412;28;19919;-68
2022/12/28 05:40:29;;;;;;;;;;;6.10;99.90;;;;;;5088059;28;19929;-68
2022/12/28 05:42:54;;;;;;;;;;;6.10;99.90;;;;;;5096958;28;20253;-67
2022/12/28 05:45:20;;;;;;;;;;;6.00;99.90;;;;;;5091023;28;19985;-67
2022/12/28 05:47:46;;;;;;;;;;;6.10;99.90;;;;;;5074522;28;19916;-68
2022/12/28 05:50:11;;;;;;;;;;;6.10;99.90;;;;;;5061220;28;20315;-68
2022/12/28 05:52:38;;;;;;;;;;;6.10;99.90;;;;;;5079567;28;19915;-69
2022/12/28 05:55:04;;;;;;;;;;;6.10;99.90;;;;;;5099864;28;19965;-68
2022/12/28 05:57:30;;;;;;;;;;;6.10;99.90;;;;;;5094311;28;20012;-68
2022/12/28 05:59:57;;;;;;;;;;;6.10;99.90;;;;;;5100867;28;19916;-67
2022/12/28 06:02:26;;;;;;;;;;;6.20;99.90;;;;;;5081939;28;20015;-68
2022/12/28 06:04:52;;;;;;;;;;;6.20;99.90;;;;;;5085147;28;19979;-69
2022/12/28 06:07:17;;;;;;;;;;;6.20;99.90;;;;;;5094322;28;19915;-68
2022/12/28 06:09:43;;;;;;;;;;;6.20;99.90;;;;;;5095146;28;19964;-67
2022/12/28 06:12:09;;;;;;;;;;;6.30;99.90;;;;;;5083226;28;19919;-67
2022/12/28 06:14:34;;;;;;;;;;;6.30;99.90;;;;;;5078035;28;19923;-67
2022/12/28 06:17:00;;;;;;;;;;;6.30;99.90;;;;;;5083860;28;19926;-66
2022/12/28 06:19:26;;;;;;;;;;;6.30;99.90;;;;;;5085656;28;19916;-67
2022/12/28 06:21:51;;;;;;;;;;;6.30;99.90;;;;;;5098536;28;19958;-67
2022/12/28 06:24:17;;;;;;;;;;;6.30;99.90;;;;;;5092334;28;19927;-69
2022/12/28 06:26:43;;;;;;;;;;;6.40;99.90;;;;;;5072848;28;19928;-67
2022/12/28 06:29:09;;;;;;;;;;;6.30;99.90;;;;;;5075095;28;19920;-67
2022/12/28 06:31:35;;;;;;;;;;;6.40;99.90;;;;;;5106024;28;19926;-67
2022/12/28 06:34:02;;;;;;;;;;;6.40;99.90;;;;;;5099303;28;20012;-67
2022/12/28 06:36:28;;;;;;;;;;;6.40;99.90;;;;;;5096308;28;20422;-67
2022/12/28 06:38:55;;;;;;;;;;;6.50;99.90;;;;;;5101940;28;19920;-68
2022/12/28 06:41:20;;;;;;;;;;;6.50;99.90;;;;;;5077800;28;20093;-68
2022/12/28 06:43:46;;;;;;;;;;;6.50;99.90;;;;;;5106336;28;20026;-66
2022/12/28 06:46:15;;;;;;;;;;;6.50;99.90;;;;;;5108649;28;19916;-67
2022/12/28 06:48:40;;;;;;;;;;;6.60;99.90;;;;;;5072324;28;19947;-68
2022/12/28 06:51:07;;;;;;;;;;;6.60;99.90;;;;;;5104324;28;19912;-69
2022/12/28 06:53:33;;;;;;;;;;;6.60;99.90;;;;;;5101357;28;19927;-69
2022/12/28 06:56:06;;;;;;;;;;;6.60;99.90;;;;;;5102365;28;19977;-67
2022/12/28 06:58:31;;;;;;;;;;;6.60;99.90;;;;;;5080625;28;19916;-67
2022/12/28 07:01:03;;;;;;;;;;;6.70;99.90;;;;;;5095427;28;19920;-67
2022/12/28 07:03:29;;;;;;;;;;;6.70;99.90;;;;;;5095572;28;19947;-69
2022/12/28 07:05:58;;;;;;;;;;;6.70;99.90;;;;;;5103859;28;19959;-69
2022/12/28 07:08:23;;;;;;;;;;;6.70;99.90;;;;;;5066378;28;19916;-69
2022/12/28 07:10:49;;;;;;;;;;;6.70;99.90;;;;;;5094562;28;19932;-69
2022/12/28 07:13:15;;;;;;;;;;;6.70;99.90;;;;;;5103266;28;19916;-69
2022/12/28 07:15:40;;;;;;;;;;;6.70;99.90;;;;;;5100584;28;19916;-68
2022/12/28 07:18:06;;;;;;;;;;;6.60;99.90;;;;;;5091101;28;19915;-68
2022/12/28 07:20:33;;;;;;;;;;;6.60;99.90;;;;;;5099401;28;19915;-69
2022/12/28 07:22:59;;;;;;;;;;;6.60;99.90;;;;;;5104705;28;19916;-69
2022/12/28 07:25:24;;;;;;;;;;;6.60;99.90;;;;;;5098502;28;19941;-67
2022/12/28 07:27:51;;;;;;;;;;;6.60;99.90;;;;;;5096904;28;20054;-68
2022/12/28 07:30:17;;;;;;;;;;;6.60;99.90;;;;;;5092424;28;19959;-67
2022/12/28 07:32:43;;;;;;;;;;;6.60;99.90;;;;;;5100008;28;20330;-66
2022/12/28 07:35:08;;;;;;;;;;;6.60;99.90;;;;;;5096587;28;20092;-68
2022/12/28 07:37:37;;;;;;;;;;;6.70;99.90;;;;;;5075853;28;19920;-69
2022/12/28 07:40:07;;;;;;;;;;;6.60;99.90;;;;;;5076990;28;20002;-69
2022/12/28 07:42:41;;;;;;;;;;;6.60;99.90;;;;;;5096947;28;20674;-69
2022/12/28 07:45:09;;;;;;;;;;;6.60;99.90;;;;;;5086421;28;19912;-70
2022/12/28 07:47:35;;;;;;;;;;;6.60;99.90;;;;;;5100954;28;19915;-70
2022/12/28 07:50:01;;;;;;;;;;;6.70;99.90;;;;;;5098342;28;20309;-69
2022/12/28 07:52:26;;;;;;;;;;;6.70;99.90;;;;;;5076101;28;19915;-69
2022/12/28 07:54:52;;;;;;;;;;;6.70;99.90;;;;;;5085623;28;19928;-68
2022/12/28 07:57:18;;;;;;;;;;;6.80;99.90;;;;;;5092164;28;19948;-69
2022/12/28 07:59:43;;;;;;;;;;;6.80;99.90;;;;;;5088979;28;20393;-68
2022/12/28 08:02:09;;;;;;;;;;;6.80;99.90;;;;;;5091531;28;19920;-66
2022/12/28 08:04:35;;;;;;;;;;;6.80;99.90;;;;;;5069469;28;19972;-66
2022/12/28 08:07:01;;;;;;;;;;;6.80;99.90;;;;;;5084863;28;19916;-68
2022/12/28 08:09:26;;;;;;;;;;;6.80;99.90;;;;;;5093752;28;20828;-69
2022/12/28 08:11:52;;;;;;;;;;;6.90;99.90;;;;;;5104742;28;20321;-67
2022/12/28 08:14:18;;;;;;;;;;;6.90;99.90;;;;;;5092343;28;19926;-67
2022/12/28 08:16:43;;;;;;;;;;;6.90;99.90;;;;;;5083164;28;20003;-69
2022/12/28 08:19:09;;;;;;;;;;;6.90;99.90;;;;;;5089320;28;19916;-68
2022/12/28 08:21:44;;;;;;;;;;;6.90;99.90;;;;;;5107338;28;19920;-68
2022/12/28 08:24:17;;;;;;;;;;;7.00;99.90;;;;;;5085159;28;19921;-66
2022/12/28 08:26:43;;;;;;;;;;;7.00;99.90;;;;;;5090827;28;19917;-68
2022/12/28 08:29:10;;;;;;;;;;;7.00;99.90;;;;;;5096763;28;20337;-67
2022/12/28 08:31:36;;;;;;;;;;;7.00;99.90;;;;;;5076230;28;19950;-69
2022/12/28 08:34:02;;;;;;;;;;;7.10;99.90;;;;;;5083557;28;20392;-69
2022/12/28 08:36:28;;;;;;;;;;;7.10;99.90;;;;;;5099719;28;19923;-70
2022/12/28 08:38:54;;;;;;;;;;;7.10;99.90;;;;;;5082954;28;19920;-69
2022/12/28 08:41:20;;;;;;;;;;;7.10;99.90;;;;;;5083099;28;19994;-70
2022/12/28 08:43:46;;;;;;;;;;;7.20;99.90;;;;;;5083115;28;19916;-70
2022/12/28 08:46:12;;;;;;;;;;;7.20;99.90;;;;;;5068365;28;19926;-69
2022/12/28 08:48:38;;;;;;;;;;;7.20;99.90;;;;;;5077414;28;19950;-69
2022/12/28 08:51:09;;;;;;;;;;;7.20;99.90;;;;;;5061437;28;19916;-68
2022/12/28 08:53:34;;;;;;;;;;;7.20;99.90;;;;;;5076150;28;20384;-67
2022/12/28 08:56:09;;;;;;;;;;;7.30;99.90;;;;;;5095175;28;19951;-66
2022/12/28 08:58:35;;;;;;;;;;;7.30;99.90;;;;;;5103409;28;19915;-66
2022/12/28 09:01:17;;;;;;;;;;;7.30;99.90;;;;;;5093123;28;19921;-67
2022/12/28 09:03:43;;;;;;;;;;;7.30;99.90;;;;;;5096138;28;20006;-66
2022/12/28 09:06:10;;;;;;;;;;;7.30;99.90;;;;;;5065953;28;19923;-67
2022/12/28 09:08:36;;;;;;;;;;;7.30;99.90;;;;;;5084112;28;20003;-65
2022/12/28 09:11:02;;;;;;;;;;;7.40;99.90;;;;;;5073690;28;20007;-70
2022/12/28 09:13:28;;;;;;;;;;;7.30;99.90;;;;;;5071923;28;19916;-65
2022/12/28 09:15:57;;;;;;;;;;;7.40;99.90;;;;;;5081823;28;20358;-66
2022/12/28 09:18:23;;;;;;;;;;;7.40;99.90;;;;;;5102711;28;20428;-65
2022/12/28 09:20:48;;;;;;;;;;;7.50;99.90;;;;;;5077904;28;19938;-67
2022/12/28 09:23:14;;;;;;;;;;;7.50;99.90;;;;;;5093954;28;19911;-67
2022/12/28 09:25:40;;;;;;;;;;;7.50;99.90;;;;;;5090652;28;19927;-68
2022/12/28 09:28:05;;;;;;;;;;;7.50;99.90;;;;;;5097538;28;19920;-66
2022/12/28 09:30:31;;;;;;;;;;;7.50;99.90;;;;;;5085827;28;19916;-65
2022/12/28 09:35:41;;;;;;;;;;;7.50;99.90;;;;;;5105239;28;19931;-67
2022/12/28 09:38:07;;;;;;;;;;;7.50;99.90;;;;;;5087641;28;20540;-65
2022/12/28 09:40:36;;;;;;;;;;;7.60;99.90;;;;;;5087716;28;20668;-67
2022/12/28 09:43:04;;;;;;;;;;;7.60;99.90;;;;;;5088739;28;20462;-71
2022/12/28 09:45:29;;;;;;;;;;;7.60;99.90;;;;;;5105723;28;19958;-72
2022/12/28 09:47:57;;;;;;;;;;;7.60;99.90;;;;;;5079026;28;20545;-72
2022/12/28 09:50:33;;;;;;;;;;;7.60;99.90;;;;;;5057352;28;19912;-70
2022/12/28 09:53:05;;;;;;;;;;;7.60;99.90;;;;;;5105436;28;19964;-72
2022/12/28 09:55:37;;;;;;;;;;;7.60;99.90;;;;;;5096436;28;19922;-72
2022/12/28 09:58:03;;;;;;;;;;;7.60;99.90;;;;;;5088876;28;20516;-70
2022/12/28 10:00:31;;;;;;;;;;;7.60;99.90;;;;;;5088648;28;19912;-71
2022/12/28 10:03:00;;;;;;;;;;;7.60;99.90;;;;;;5101605;28;19954;-73
2022/12/28 10:05:26;;;;;;;;;;;7.60;99.90;;;;;;5094644;28;20261;-72
2022/12/28 10:07:52;;;;;;;;;;;7.60;99.90;;;;;;5098057;28;19916;-73
2022/12/28 10:10:19;;;;;;;;;;;7.60;99.90;;;;;;5070774;28;19920;-71
2022/12/28 10:12:45;;;;;;;;;;;7.70;99.90;;;;;;5065729;28;20053;-72
2022/12/28 10:15:13;;;;;;;;;;;7.70;99.90;;;;;;5089697;28;20325;-67
2022/12/28 10:17:39;;;;;;;;;;;7.70;99.90;;;;;;5085361;28;20380;-65
2022/12/28 10:20:06;;;;;;;;;;;7.80;99.90;;;;;;5095475;28;19953;-67
2022/12/28 10:22:36;;;;;;;;;;;7.80;99.90;;;;;;5079911;28;19915;-67
2022/12/28 10:25:01;;;;;;;;;;;7.80;99.90;;;;;;5078092;28;19917;-70
2022/12/28 10:27:30;;;;;;;;;;;7.90;99.90;;;;;;5104885;28;19915;-70
2022/12/28 10:29:56;;;;;;;;;;;7.90;99.90;;;;;;5079036;28;19916;-68
2022/12/28 10:32:22;;;;;;;;;;;7.90;99.90;;;;;;5098804;28;20601;-68
2022/12/28 10:34:57;;;;;;;;;;;7.90;99.90;;;;;;5090855;28;19922;-67
2022/12/28 10:37:23;;;;;;;;;;;7.90;99.90;;;;;;5099759;28;19962;-68
2022/12/28 10:39:56;;;;;;;;;;;7.90;99.90;;;;;;5103727;28;19954;-72
2022/12/28 10:42:41;;;;;;;;;;;7.90;99.90;;;;;;5083293;28;19920;-71
2022/12/28 10:45:20;;;;;;;;;;;7.90;99.90;;;;;;5064158;28;20140;-72
2022/12/28 10:47:47;;;;;;;;;;;7.90;99.90;;;;;;5105643;28;20436;-72
2022/12/28 10:50:32;;;;;;;;;;;8.00;99.90;;;;;;5089290;28;20029;-72
2022/12/28 10:52:57;;;;;;;;;;;7.90;99.90;;;;;;5080407;28;19927;-72
2022/12/28 10:55:33;;;;;;;;;;;7.90;99.90;;;;;;5092012;28;19916;-73
2022/12/28 10:58:17;;;;;;;;;;;8.00;99.90;;;;;;5100374;28;19928;-73
2022/12/28 11:00:47;;;;;;;;;;;8.10;99.90;;;;;;5092644;28;20347;-72
2022/12/28 11:03:16;;;;;;;;;;;8.10;99.90;;;;;;5061920;28;20321;-72
2022/12/28 11:05:42;;;;;;;;;;;8.20;99.90;;;;;;5080647;28;19961;-71
2022/12/28 11:08:09;;;;;;;;;;;8.20;99.90;;;;;;5074155;28;19915;-72
2022/12/28 11:10:36;;;;;;;;;;;8.20;99.90;;;;;;5080516;28;19922;-71
2022/12/28 11:13:02;;;;;;;;;;;8.20;99.90;;;;;;5093774;28;19916;-72
2022/12/28 11:15:30;;;;;;;;;;;8.20;99.90;;;;;;5096130;28;19972;-71
2022/12/28 11:17:57;;;;;;;;;;;8.20;99.90;;;;;;5052763;28;19916;-71
2022/12/28 11:20:36;;;;;;;;;;;8.30;99.90;;;;;;5091763;28;19912;-71
2022/12/28 11:23:05;;;;;;;;;;;8.30;99.90;;;;;;5097076;28;19916;-72
2022/12/28 11:25:33;;;;;;;;;;;8.30;99.90;;;;;;5092083;28;19915;-72
2022/12/28 11:27:59;;;;;;;;;;;8.30;99.90;;;;;;5077655;28;19959;-66
2022/12/28 11:30:25;;;;;;;;;;;8.30;99.90;;;;;;5073899;28;20345;-68
2022/12/28 11:32:54;;;;;;;;;;;8.30;99.90;;;;;;5098121;28;19927;-72
2022/12/28 11:35:21;;;;;;;;;;;8.30;99.90;;;;;;5089907;28;20295;-68
2022/12/28 11:37:47;;;;;;;;;;;8.40;99.90;;;;;;5077387;28;20345;-72
2022/12/28 11:40:35;;;;;;;;;;;8.40;99.90;;;;;;5078238;28;19962;-68
2022/12/28 11:43:01;;;;;;;;;;;8.50;99.90;;;;;;5101451;28;20253;-65
2022/12/28 11:46:05;;;;;;;;;;;8.50;99.90;;;;;;5076941;28;19912;-67
2022/12/28 11:48:57;;;;;;;;;;;8.50;99.90;;;;;;5044472;28;19921;-68
2022/12/28 11:51:24;;;;;;;;;;;8.60;99.90;;;;;;5040127;28;19913;-72
2022/12/28 11:54:00;;;;;;;;;;;8.60;99.90;;;;;;5053551;28;19982;-72
2022/12/28 11:56:26;;;;;;;;;;;8.70;99.90;;;;;;5101616;28;19938;-71
2022/12/28 11:58:58;;;;;;;;;;;8.70;99.90;;;;;;5101668;28;19915;-72
2022/12/28 12:01:28;;;;;;;;;;;8.80;99.90;;;;;;5094152;28;19927;-72
2022/12/28 12:03:56;;;;;;;;;;;8.70;99.90;;;;;;5091223;28;19919;-71
2022/12/28 12:06:43;;;;;;;;;;;8.80;99.90;;;;;;5097084;28;19927;-71
2022/12/28 12:09:24;;;;;;;;;;;8.70;99.90;;;;;;5076231;28;19916;-71
2022/12/28 12:11:54;;;;;;;;;;;8.70;99.90;;;;;;5071928;28;19927;-72
2022/12/28 12:14:27;;;;;;;;;;;8.80;99.90;;;;;;5080055;28;19971;-72
2022/12/28 12:16:57;;;;;;;;;;;8.70;99.90;;;;;;5094771;28;19916;-72
2022/12/28 12:19:27;;;;;;;;;;;8.70;99.90;;;;;;5077009;28;19923;-72
2022/12/28 12:21:58;;;;;;;;;;;8.70;99.90;;;;;;5072749;28;19951;-72
2022/12/28 12:24:44;;;;;;;;;;;8.70;99.90;;;;;;5080240;28;19920;-72
2022/12/28 12:27:18;;;;;;;;;;;8.70;99.90;;;;;;5095114;28;19920;-72
2022/12/28 12:29:44;;;;;;;;;;;8.70;99.90;;;;;;5102498;28;20003;-73
2022/12/28 12:32:09;;;;;;;;;;;8.70;99.90;;;;;;5078430;28;20018;-67
2022/12/28 12:34:35;;;;;;;;;;;8.70;99.90;;;;;;5089154;28;20007;-66
2022/12/28 12:37:19;;;;;;;;;;;8.70;99.90;;;;;;5105243;28;20018;-66
2022/12/28 12:39:51;;;;;;;;;;;8.70;99.90;;;;;;5102168;28;20415;-67
2022/12/28 12:42:20;;;;;;;;;;;8.70;99.90;;;;;;5111456;28;20010;-68
2022/12/28 12:44:56;;;;;;;;;;;8.70;99.90;;;;;;5083376;28;19916;-66
2022/12/28 12:47:40;;;;;;;;;;;8.70;99.90;;;;;;5101535;28;19942;-67
2022/12/28 12:50:15;;;;;;;;;;;8.70;99.90;;;;;;5085821;28;19947;-72
2022/12/28 12:52:43;;;;;;;;;;;8.60;99.90;;;;;;5089615;28;19916;-72
2022/12/28 12:55:21;;;;;;;;;;;8.60;99.90;;;;;;5081091;28;19915;-67
2022/12/28 12:57:57;;;;;;;;;;;8.50;99.90;;;;;;5069471;28;19923;-66
2022/12/28 13:00:23;;;;;;;;;;;8.50;99.90;;;;;;5103900;28;19912;-67
2022/12/28 13:03:07;;;;;;;;;;;8.50;99.90;;;;;;5088121;28;19912;-67
2022/12/28 13:05:35;;;;;;;;;;;8.50;99.90;;;;;;5105088;28;19916;-67
2022/12/28 13:08:00;;;;;;;;;;;8.50;99.90;;;;;;5110210;28;19920;-65
2022/12/28 13:10:27;;;;;;;;;;;8.50;99.90;;;;;;5110254;28;19971;-67
2022/12/28 13:12:53;;;;;;;;;;;8.50;99.90;;;;;;5103921;28;19916;-65
2022/12/28 13:15:19;;;;;;;;;;;8.50;99.90;;;;;;5094355;28;20272;-72
2022/12/28 13:18:17;;;;;;;;;;;8.60;99.90;;;;;;5098993;28;19962;-71
2022/12/28 13:20:58;;;;;;;;;;;8.70;99.90;;;;;;5059450;28;20329;-72
2022/12/28 13:23:24;;;;;;;;;;;8.70;99.90;;;;;;5093218;28;19915;-72
2022/12/28 13:25:51;;;;;;;;;;;8.70;99.90;;;;;;5083235;28;19920;-72
2022/12/28 13:28:26;;;;;;;;;;;8.80;99.90;;;;;;5103195;28;19916;-72
2022/12/28 13:31:08;;;;;;;;;;;8.80;99.90;;;;;;5089746;28;19916;-72
2022/12/28 13:33:33;;;;;;;;;;;8.80;99.90;;;;;;5098329;28;19916;-71
2022/12/28 13:36:11;;;;;;;;;;;8.80;99.90;;;;;;5095168;28;19939;-71
2022/12/28 13:38:37;;;;;;;;;;;8.90;99.90;;;;;;5110594;28;19915;-70
2022/12/28 13:41:03;;;;;;;;;;;8.90;99.90;;;;;;5104012;28;20374;-70
2022/12/28 13:43:34;;;;;;;;;;;8.90;99.90;;;;;;5090406;28;19981;-69
2022/12/28 13:46:06;;;;;;;;;;;8.90;99.90;;;;;;5088682;28;20334;-70
2022/12/28 13:48:32;;;;;;;;;;;8.90;99.90;;;;;;5092424;28;19942;-71
2022/12/28 13:50:58;;;;;;;;;;;8.90;99.90;;;;;;5102918;28;19955;-71
2022/12/28 13:53:24;;;;;;;;;;;8.90;99.90;;;;;;5105808;28;20281;-71
2022/12/28 13:55:54;;;;;;;;;;;8.90;99.90;;;;;;5094166;28;19932;-71
2022/12/28 13:58:28;;;;;;;;;;;8.90;99.90;;;;;;5089657;28;19915;-73
2022/12/28 14:00:54;;;;;;;;;;;8.90;99.90;;;;;;5089593;28;19934;-71
2022/12/28 14:03:21;;;;;;;;;;;8.90;99.90;;;;;;5102174;28;19942;-71
2022/12/28 14:05:47;;;;;;;;;;;8.90;99.90;;;;;;5082800;28;19940;-71
2022/12/28 14:08:13;;;;;;;;;;;8.90;99.90;;;;;;5107677;28;19941;-72
2022/12/28 14:10:39;;;;;;;;;;;8.90;99.90;;;;;;5091884;28;19942;-71
2022/12/28 14:13:04;;;;;;;;;;;8.90;99.90;;;;;;5098147;28;19966;-71
2022/12/28 14:15:30;;;;;;;;;;;8.90;99.90;;;;;;5101446;28;19931;-71
2022/12/28 14:17:56;;;;;;;;;;;8.90;99.90;;;;;;5094606;28;19923;-71
2022/12/28 14:20:21;;;;;;;;;;;8.90;99.90;;;;;;5097977;28;19916;-71
2022/12/28 14:22:47;;;;;;;;;;;8.90;99.90;;;;;;5105409;28;20003;-71
2022/12/28 14:25:13;;;;;;;;;;;8.90;99.90;;;;;;5093485;28;19923;-72
2022/12/28 14:27:40;;;;;;;;;;;8.90;99.90;;;;;;5092994;28;19920;-73
2022/12/28 14:30:07;;;;;;;;;;;8.90;99.90;;;;;;5095548;28;19927;-71
2022/12/28 14:32:33;;;;;;;;;;;8.90;99.90;;;;;;5091837;28;19987;-72
2022/12/28 14:34:59;;;;;;;;;;;8.90;99.90;;;;;;5083696;28;19946;-71
2022/12/28 14:37:34;;;;;;;;;;;8.90;99.90;;;;;;5107036;28;20321;-72
2022/12/28 14:40:00;;;;;;;;;;;9.00;99.90;;;;;;5067002;28;19968;-72
2022/12/28 14:42:25;;;;;;;;;;;8.90;99.90;;;;;;5077071;28;19920;-72
2022/12/28 14:44:51;;;;;;;;;;;8.90;99.90;;;;;;5092869;28;19913;-71
2022/12/28 14:47:35;;;;;;;;;;;8.90;99.90;;;;;;5060303;28;20318;-71
2022/12/28 14:50:24;;;;;;;;;;;8.90;99.90;;;;;;5109673;28;19970;-72
2022/12/28 14:52:50;;;;;;;;;;;8.90;99.90;;;;;;5079784;28;19916;-72
2022/12/28 14:55:20;;;;;;;;;;;8.90;99.90;;;;;;5077801;28;19947;-71
2022/12/28 14:57:48;;;;;;;;;;;8.90;99.90;;;;;;5077858;28;19920;-71
2022/12/28 15:00:19;;;;;;;;;;;8.90;99.90;;;;;;5094161;28;19959;-73
2022/12/28 15:02:45;;;;;;;;;;;8.90;99.90;;;;;;5098408;28;20256;-72
2022/12/28 15:05:50;;;;;;;;;;;8.90;99.90;;;;;;5094081;28;19923;-71
2022/12/28 15:08:16;;;;;;;;;;;8.90;99.90;;;;;;5053103;28;19944;-73
2022/12/28 15:10:51;;;;;;;;;;;8.90;99.90;;;;;;5044142;28;19955;-72